Time;durP1;ratioP1;P1;durP2;ratioP2;P2;SDS_P1;SDS_P2;PMS_P1;PMS_P2;Temp;Humidity;BMP_temperature;BMP_pressure;BME280_temperature;BME280_humidity;BME280_pressure;Samples;Min_cycle;Max_cycle;Signal;HPM_P1;HPM_P2
2023/03/14 00:00:58;;;;;;;2.08;1.15;;;10.10;99.90;;;;;;5053714;28;20025;-64
2023/03/14 00:03:24;;;;;;;2.33;0.93;;;10.20;99.90;;;;;;5077107;28;20074;-65
2023/03/14 00:05:49;;;;;;;7.45;1.00;;;10.20;99.90;;;;;;5074626;28;20031;-63
2023/03/14 00:08:15;;;;;;;3.15;0.95;;;10.20;99.90;;;;;;5061862;28;20020;-64
2023/03/14 00:10:41;;;;;;;3.08;1.00;;;10.20;99.90;;;;;;5056714;28;20036;-64
2023/03/14 00:13:06;;;;;;;9.00;1.13;;;10.10;99.90;;;;;;5057478;28;20021;-66
2023/03/14 00:15:33;;;;;;;5.38;1.33;;;10.10;99.90;;;;;;5053314;28;20037;-68
2023/03/14 00:18:00;;;;;;;8.80;1.60;;;10.10;99.90;;;;;;5055651;28;20039;-64
2023/03/14 00:20:26;;;;;;;5.15;1.23;;;10.10;99.90;;;;;;5056834;28;20028;-64
2023/03/14 00:22:51;;;;;;;5.57;1.55;;;10.20;99.90;;;;;;5054742;28;20512;-63
2023/03/14 00:25:17;;;;;;;3.75;1.05;;;10.20;99.90;;;;;;5052225;28;20135;-66
2023/03/14 00:27:43;;;;;;;3.17;0.93;;;10.20;99.90;;;;;;5053782;28;20033;-66
2023/03/14 00:30:09;;;;;;;1.95;0.98;;;10.30;99.90;;;;;;5052860;28;20048;-64
2023/03/14 00:32:35;;;;;;;5.55;1.17;;;10.30;99.90;;;;;;5060436;28;20040;-65
2023/03/14 00:35:01;;;;;;;5.38;1.55;;;10.30;99.90;;;;;;5055831;28;20028;-64
2023/03/14 00:37:27;;;;;;;8.18;0.80;;;10.30;99.90;;;;;;5042351;28;20048;-63
2023/03/14 00:39:53;;;;;;;6.63;1.40;;;10.30;99.90;;;;;;5064111;28;20017;-65
2023/03/14 00:42:18;;;;;;;3.22;0.77;;;10.30;99.90;;;;;;5064272;28;20547;-65
2023/03/14 00:44:44;;;;;;;3.13;1.15;;;10.40;99.90;;;;;;5055734;28;20062;-64
2023/03/14 00:47:10;;;;;;;3.22;1.00;;;10.40;99.90;;;;;;5071748;28;20073;-63
2023/03/14 00:49:35;;;;;;;9.88;1.25;;;10.40;99.90;;;;;;5069175;28;20104;-64
2023/03/14 00:52:01;;;;;;;5.35;2.13;;;10.50;99.90;;;;;;5067365;28;20021;-63
2023/03/14 00:54:26;;;;;;;3.85;1.10;;;10.50;99.90;;;;;;5060286;28;20027;-63
2023/03/14 00:56:52;;;;;;;4.75;1.10;;;10.50;99.90;;;;;;5059555;28;20517;-64
2023/03/14 00:59:18;;;;;;;6.88;2.03;;;10.60;99.90;;;;;;5059896;28;20035;-65
2023/03/14 01:01:44;;;;;;;5.45;1.13;;;10.60;99.90;;;;;;5064452;28;20096;-65
2023/03/14 01:04:10;;;;;;;7.45;1.27;;;10.60;99.90;;;;;;5066124;28;20043;-63
2023/03/14 01:06:35;;;;;;;4.80;1.10;;;10.60;99.90;;;;;;5066962;28;20398;-64
2023/03/14 01:09:01;;;;;;;8.90;1.20;;;10.70;99.90;;;;;;5058292;28;20107;-63
2023/03/14 01:11:30;;;;;;;11.73;1.40;;;10.70;99.90;;;;;;5056990;28;20029;-64
2023/03/14 01:13:56;;;;;;;8.65;0.75;;;10.70;99.90;;;;;;5053413;28;20405;-65
2023/03/14 01:16:24;;;;;;;4.72;1.92;;;10.80;99.90;;;;;;5058028;28;20105;-63
2023/03/14 01:18:50;;;;;;;9.75;1.95;;;10.80;99.90;;;;;;5058486;28;20025;-64
2023/03/14 01:21:19;;;;;;;10.48;1.42;;;10.80;99.90;;;;;;5058677;28;20090;-64
2023/03/14 01:23:45;;;;;;;2.38;1.02;;;10.80;99.90;;;;;;5058273;28;20097;-63
2023/03/14 01:26:12;;;;;;;4.57;1.88;;;10.80;99.90;;;;;;5059697;28;20024;-63
2023/03/14 01:28:39;;;;;;;4.57;1.48;;;10.80;99.90;;;;;;5055195;28;20021;-63
2023/03/14 01:31:06;;;;;;;7.95;1.73;;;10.80;99.90;;;;;;5055904;28;20401;-63
2023/03/14 01:33:32;;;;;;;6.70;1.08;;;10.80;99.90;;;;;;5055140;28;20073;-63
2023/03/14 01:35:57;;;;;;;4.45;1.10;;;10.80;99.90;;;;;;5050177;28;20024;-64
2023/03/14 01:38:23;;;;;;;1.60;0.80;;;10.80;99.90;;;;;;5041259;28;20048;-62
2023/03/14 01:40:48;;;;;;;5.78;1.40;;;10.80;99.90;;;;;;5068037;28;20033;-64
2023/03/14 01:43:19;;;;;;;6.50;1.50;;;10.70;99.90;;;;;;5068406;28;20027;-64
2023/03/14 01:46:03;;;;;;;2.72;1.00;;;10.70;99.90;;;;;;5063301;28;20079;-65
2023/03/14 01:48:38;;;;;;;3.80;1.00;;;10.60;99.90;;;;;;5077864;28;20627;-65
2023/03/14 01:51:08;;;;;;;5.03;1.25;;;10.50;99.90;;;;;;5059896;28;20036;-65
2023/03/14 01:53:34;;;;;;;8.30;1.92;;;10.40;99.90;;;;;;5065452;28;20464;-65
2023/03/14 01:56:00;;;;;;;2.67;1.25;;;10.30;99.90;;;;;;5059032;28;20116;-65
2023/03/14 01:58:28;;;;;;;4.00;1.15;;;10.20;99.90;;;;;;5058734;28;20111;-64
2023/03/14 02:00:57;;;;;;;5.22;1.40;;;10.10;99.90;;;;;;5055639;28;21964;-64
2023/03/14 02:03:24;;;;;;;2.75;0.73;;;10.00;99.90;;;;;;5064878;28;20024;-65
2023/03/14 02:05:51;;;;;;;7.88;1.23;;;9.90;99.90;;;;;;5058437;28;20111;-65
2023/03/14 02:08:21;;;;;;;4.78;1.70;;;9.80;99.90;;;;;;5060929;28;20039;-64
2023/03/14 02:10:49;;;;;;;7.20;1.58;;;9.70;99.90;;;;;;5060176;28;20031;-64
2023/03/14 02:13:18;;;;;;;7.65;1.30;;;9.60;99.90;;;;;;5056566;28;20044;-62
2023/03/14 02:15:43;;;;;;;2.70;0.90;;;9.60;99.90;;;;;;5055822;28;20036;-64
2023/03/14 02:18:10;;;;;;;4.35;1.23;;;9.50;99.90;;;;;;5057245;28;20025;-65
2023/03/14 02:21:11;;;;;;;5.93;1.65;;;9.50;99.90;;;;;;5068212;28;20013;-65
2023/03/14 02:23:47;;;;;;;8.10;1.60;;;9.50;99.90;;;;;;5065360;28;20063;-65
2023/03/14 02:26:40;;;;;;;4.88;1.00;;;9.40;99.90;;;;;;5066257;28;20029;-64
2023/03/14 02:29:06;;;;;;;8.75;1.30;;;9.30;99.90;;;;;;5063550;28;20066;-63
2023/03/14 02:31:32;;;;;;;4.07;1.40;;;9.30;99.90;;;;;;5070997;28;20024;-64
2023/03/14 02:33:59;;;;;;;3.85;1.00;;;9.20;99.90;;;;;;5067124;28;20017;-65
2023/03/14 02:36:25;;;;;;;7.18;1.38;;;9.20;99.90;;;;;;5066538;28;20048;-64
2023/03/14 02:39:08;;;;;;;1.92;0.68;;;9.10;99.90;;;;;;5048237;28;20048;-66
2023/03/14 02:41:34;;;;;;;2.30;0.52;;;9.00;99.90;;;;;;5060691;28;20017;-64
2023/03/14 02:44:00;;;;;;;5.85;0.90;;;8.90;99.90;;;;;;5054334;28;20078;-63
2023/03/14 02:46:25;;;;;;;1.98;0.50;;;8.90;99.90;;;;;;5061799;28;20044;-65
2023/03/14 02:48:54;;;;;;;8.88;1.92;;;8.80;99.90;;;;;;5062356;28;20512;-64
2023/03/14 02:51:21;;;;;;;1.60;0.68;;;8.80;99.90;;;;;;5070821;28;20021;-67
2023/03/14 02:53:46;;;;;;;1.25;0.40;;;8.70;99.90;;;;;;5069561;28;20026;-66
2023/03/14 02:56:12;;;;;;;2.60;0.45;;;8.70;99.90;;;;;;5069279;28;20025;-66
2023/03/14 02:58:38;;;;;;;8.32;0.98;;;8.70;99.90;;;;;;5063722;28;20780;-66
2023/03/14 03:01:04;;;;;;;3.03;0.55;;;8.60;99.90;;;;;;5066961;28;20020;-66
2023/03/14 03:03:30;;;;;;;2.13;0.65;;;8.50;99.90;;;;;;5064521;28;20024;-66
2023/03/14 03:05:56;;;;;;;0.45;0.45;;;8.50;99.90;;;;;;5060882;28;20042;-67
2023/03/14 03:08:24;;;;;;;2.25;0.52;;;8.40;99.90;;;;;;5062637;28;20058;-66
2023/03/14 03:10:50;;;;;;;9.82;1.05;;;8.40;99.90;;;;;;5060851;28;20052;-66
2023/03/14 03:13:16;;;;;;;1.88;0.57;;;8.40;99.90;;;;;;5060889;28;20196;-66
2023/03/14 03:15:43;;;;;;;7.22;1.23;;;8.40;99.90;;;;;;5068229;28;20090;-66
2023/03/14 03:18:09;;;;;;;2.10;0.70;;;8.40;99.90;;;;;;5057634;28;20040;-67
2023/03/14 03:20:35;;;;;;;6.32;1.13;;;8.30;99.90;;;;;;5059767;28;20537;-66
2023/03/14 03:23:00;;;;;;;3.88;1.23;;;8.30;99.90;;;;;;5061543;28;20119;-66
2023/03/14 03:25:27;;;;;;;5.28;1.08;;;8.30;99.90;;;;;;5056404;28;20016;-67
2023/03/14 03:27:53;;;;;;;5.03;0.80;;;8.30;99.90;;;;;;5054014;28;20029;-66
2023/03/14 03:30:19;;;;;;;2.50;0.73;;;8.30;99.90;;;;;;5058666;28;20502;-66
2023/03/14 03:32:44;;;;;;;3.60;0.50;;;8.20;99.90;;;;;;5060961;28;20035;-67
2023/03/14 03:35:10;;;;;;;1.23;0.47;;;8.20;99.90;;;;;;5058574;28;20028;-67
2023/03/14 03:37:36;;;;;;;5.03;0.70;;;8.20;99.90;;;;;;5036434;28;20056;-66
2023/03/14 03:40:05;;;;;;;8.25;1.15;;;8.20;99.90;;;;;;5060893;28;20056;-67
2023/03/14 03:42:32;;;;;;;5.63;0.60;;;8.20;99.90;;;;;;5061081;28;20032;-67
2023/03/14 03:44:57;;;;;;;4.75;1.95;;;8.20;99.90;;;;;;5055535;28;20056;-66
2023/03/14 03:47:23;;;;;;;11.00;1.45;;;8.30;99.90;;;;;;5062469;28;20055;-67
2023/03/14 03:49:48;;;;;;;6.95;1.27;;;8.40;99.90;;;;;;5061193;28;20112;-67
2023/03/14 03:52:14;;;;;;;10.52;1.42;;;8.40;99.90;;;;;;5060381;28;20025;-66
2023/03/14 03:54:40;;;;;;;5.18;1.17;;;8.50;99.90;;;;;;5062015;28;20032;-67
2023/03/14 03:57:05;;;;;;;6.90;1.55;;;8.50;99.90;;;;;;5069524;28;20501;-66
2023/03/14 03:59:31;;;;;;;2.50;0.73;;;8.60;99.90;;;;;;5082015;28;20128;-69
2023/03/14 04:01:56;;;;;;;10.77;2.22;;;8.60;99.90;;;;;;5069679;28;20047;-66
2023/03/14 04:04:22;;;;;;;5.65;1.27;;;8.70;99.90;;;;;;5066378;28;20016;-66
2023/03/14 04:06:48;;;;;;;8.57;0.90;;;8.70;99.90;;;;;;5069455;28;20103;-66
2023/03/14 04:09:13;;;;;;;7.28;1.40;;;8.80;99.90;;;;;;5067669;28;20040;-66
2023/03/14 04:11:39;;;;;;;6.05;1.80;;;8.80;99.90;;;;;;5068968;28;20067;-65
2023/03/14 04:14:05;;;;;;;10.45;1.33;;;8.90;99.90;;;;;;5066117;28;20347;-66
2023/03/14 04:16:34;;;;;;;6.78;1.25;;;8.90;99.90;;;;;;5072000;28;20025;-66
2023/03/14 04:19:00;;;;;;;4.82;1.30;;;8.90;99.90;;;;;;5066015;28;20021;-65
2023/03/14 04:21:26;;;;;;;4.78;0.93;;;8.90;99.90;;;;;;5068766;28;20460;-65
2023/03/14 04:23:52;;;;;;;2.22;0.82;;;8.90;99.90;;;;;;5070155;28;20021;-66
2023/03/14 04:26:17;;;;;;;8.55;1.40;;;8.90;99.90;;;;;;5068171;28;20024;-66
2023/03/14 04:28:43;;;;;;;9.32;1.10;;;8.90;99.90;;;;;;5064845;28;20374;-66
2023/03/14 04:31:15;;;;;;;6.78;1.13;;;8.90;99.90;;;;;;5066673;28;20032;-66
2023/03/14 04:33:41;;;;;;;3.67;1.73;;;8.90;99.90;;;;;;5065207;28;20655;-65
2023/03/14 04:36:07;;;;;;;3.90;1.25;;;9.00;99.90;;;;;;5070511;28;20100;-66
2023/03/14 04:38:33;;;;;;;13.75;2.17;;;9.00;99.90;;;;;;5047743;28;20101;-66
2023/03/14 04:41:00;;;;;;;5.25;1.17;;;9.00;99.90;;;;;;5066880;28;20107;-67
2023/03/14 04:43:26;;;;;;;8.63;1.23;;;9.00;99.90;;;;;;5068153;28;20036;-66
2023/03/14 04:45:56;;;;;;;11.13;1.45;;;9.10;99.90;;;;;;5067926;28;20038;-66
2023/03/14 04:48:22;;;;;;;3.80;0.70;;;9.10;99.90;;;;;;5071748;28;20465;-67
2023/03/14 04:50:48;;;;;;;5.95;1.13;;;9.20;99.90;;;;;;5070970;28;20020;-66
2023/03/14 04:53:16;;;;;;;6.20;1.45;;;9.20;99.90;;;;;;5066062;28;20025;-66
2023/03/14 04:55:41;;;;;;;5.53;1.15;;;9.10;99.90;;;;;;5061289;28;20622;-66
2023/03/14 04:58:07;;;;;;;12.77;1.20;;;9.20;99.90;;;;;;5053960;28;20497;-66
2023/03/14 05:00:33;;;;;;;5.35;0.90;;;9.10;99.90;;;;;;5057475;28;20024;-67
2023/03/14 05:02:58;;;;;;;0.82;0.70;;;9.10;99.90;;;;;;5058585;28;20044;-66
2023/03/14 05:05:24;;;;;;;3.47;0.77;;;9.10;99.90;;;;;;5060088;28;20101;-66
2023/03/14 05:07:50;;;;;;;2.88;0.80;;;9.10;99.90;;;;;;5060473;28;20071;-66
2023/03/14 05:10:16;;;;;;;4.40;1.00;;;9.00;99.90;;;;;;5057657;28;21909;-65
2023/03/14 05:12:41;;;;;;;6.35;1.45;;;9.00;99.90;;;;;;5059906;28;20036;-66
2023/03/14 05:15:08;;;;;;;1.80;0.73;;;9.00;99.90;;;;;;5080492;28;20032;-66
2023/03/14 05:17:34;;;;;;;3.20;1.20;;;9.00;99.90;;;;;;5071960;28;20115;-66
2023/03/14 05:19:59;;;;;;;3.42;0.57;;;9.00;99.90;;;;;;5068731;28;20151;-66
2023/03/14 05:22:25;;;;;;;2.17;0.52;;;8.90;99.90;;;;;;5067499;28;20036;-65
2023/03/14 05:24:51;;;;;;;3.67;0.80;;;9.00;99.90;;;;;;5065115;28;20020;-65
2023/03/14 05:27:16;;;;;;;4.03;1.08;;;9.00;99.90;;;;;;5062820;28;20056;-66
2023/03/14 05:29:42;;;;;;;2.08;0.40;;;9.00;99.90;;;;;;5067400;28;20032;-67
2023/03/14 05:32:07;;;;;;;2.80;0.82;;;8.90;99.90;;;;;;5066613;28;20102;-67
2023/03/14 05:34:33;;;;;;;6.15;0.75;;;9.00;99.90;;;;;;5065339;28;20025;-66
2023/03/14 05:36:59;;;;;;;3.53;0.60;;;9.00;99.90;;;;;;5067183;28;20035;-66
2023/03/14 05:39:24;;;;;;;0.70;0.50;;;9.00;99.90;;;;;;5045222;28;20189;-66
2023/03/14 05:41:50;;;;;;;2.55;0.70;;;9.00;99.90;;;;;;5069754;28;20485;-67
2023/03/14 05:44:16;;;;;;;1.65;0.43;;;8.90;99.90;;;;;;5069373;28;20020;-66
2023/03/14 05:46:42;;;;;;;5.57;0.40;;;8.90;99.90;;;;;;5072484;28;20040;-66
2023/03/14 05:49:07;;;;;;;1.40;0.25;;;9.00;99.90;;;;;;5069460;28;20025;-66
2023/03/14 05:51:33;;;;;;;1.02;0.30;;;9.00;99.90;;;;;;5067420;28;20408;-66
2023/03/14 05:53:59;;;;;;;3.15;0.57;;;9.00;99.90;;;;;;5068450;28;20124;-67
2023/03/14 05:56:24;;;;;;;1.48;0.40;;;8.90;99.90;;;;;;5071588;28;20025;-66
2023/03/14 05:58:50;;;;;;;0.43;0.35;;;9.00;99.90;;;;;;5070379;28;20486;-67
2023/03/14 06:01:15;;;;;;;1.63;0.40;;;9.00;99.90;;;;;;5070639;28;20031;-67
2023/03/14 06:03:41;;;;;;;2.10;1.05;;;9.00;99.90;;;;;;5067395;28;20056;-66
2023/03/14 06:06:07;;;;;;;0.93;0.47;;;9.10;99.90;;;;;;5072156;28;20025;-66
2023/03/14 06:08:34;;;;;;;2.95;0.40;;;9.10;99.90;;;;;;5068875;28;20039;-66
2023/03/14 06:11:02;;;;;;;1.13;0.45;;;9.10;99.90;;;;;;5069780;28;20037;-66
2023/03/14 06:13:27;;;;;;;5.75;0.40;;;9.10;99.90;;;;;;5070553;28;20033;-67
2023/03/14 06:15:53;;;;;;;0.88;0.47;;;9.10;99.90;;;;;;5072143;28;20024;-66
2023/03/14 06:18:19;;;;;;;2.70;0.88;;;9.10;99.90;;;;;;5064709;28;20197;-66
2023/03/14 06:20:44;;;;;;;0.73;0.40;;;9.10;99.90;;;;;;5063965;28;20044;-67
2023/03/14 06:23:10;;;;;;;0.63;0.30;;;9.10;99.90;;;;;;5061761;28;20031;-66
2023/03/14 06:25:36;;;;;;;0.35;0.30;;;9.10;99.90;;;;;;5068354;28;20517;-66
2023/03/14 06:28:02;;;;;;;0.75;0.43;;;9.20;99.90;;;;;;5064538;28;20076;-66
2023/03/14 06:30:28;;;;;;;0.77;0.60;;;9.10;99.90;;;;;;5058942;28;20040;-67
2023/03/14 06:32:55;;;;;;;0.65;0.30;;;9.20;99.90;;;;;;5057829;28;20086;-67
2023/03/14 06:35:21;;;;;;;1.92;0.40;;;9.10;99.90;;;;;;5061690;28;20435;-67
2023/03/14 06:37:47;;;;;;;1.08;0.32;;;9.10;99.90;;;;;;5061064;28;20517;-67
2023/03/14 06:40:16;;;;;;;0.82;0.43;;;9.10;99.90;;;;;;5041365;28;20076;-65
2023/03/14 06:42:43;;;;;;;3.35;0.57;;;9.00;99.90;;;;;;5064756;28;20016;-67
2023/03/14 06:45:09;;;;;;;1.50;0.40;;;9.10;99.90;;;;;;5066248;28;20028;-67
2023/03/14 06:47:35;;;;;;;1.00;0.30;;;9.00;99.90;;;;;;5067290;28;20029;-65
2023/03/14 06:50:01;;;;;;;0.20;0.20;;;9.10;99.90;;;;;;5067933;28;20036;-67
2023/03/14 06:52:26;;;;;;;1.70;0.68;;;9.10;99.90;;;;;;5060818;28;20063;-67
2023/03/14 06:54:52;;;;;;;0.70;0.47;;;9.20;99.90;;;;;;5062486;28;20603;-66
2023/03/14 06:57:17;;;;;;;0.28;0.20;;;9.20;99.90;;;;;;5062976;28;20035;-66
2023/03/14 06:59:43;;;;;;;4.22;0.50;;;9.30;99.90;;;;;;5063020;28;20023;-65
2023/03/14 07:02:12;;;;;;;1.42;0.43;;;9.30;99.90;;;;;;5061125;28;20024;-66
2023/03/14 07:04:38;;;;;;;0.80;0.47;;;9.30;99.90;;;;;;5058532;28;20083;-68
2023/03/14 07:07:04;;;;;;;1.77;0.55;;;9.30;99.90;;;;;;5061236;28;20059;-67
2023/03/14 07:09:29;;;;;;;1.75;0.55;;;9.40;99.90;;;;;;5066861;28;20070;-67
2023/03/14 07:11:55;;;;;;;0.40;0.20;;;9.50;99.90;;;;;;5059804;28;20052;-66
2023/03/14 07:14:21;;;;;;;2.08;0.73;;;9.60;99.90;;;;;;5062872;28;20034;-67
2023/03/14 07:16:46;;;;;;;0.28;0.28;;;9.60;99.90;;;;;;5068491;28;20036;-66
2023/03/14 07:19:12;;;;;;;0.63;0.40;;;9.60;99.90;;;;;;5055334;28;20029;-66
2023/03/14 07:21:37;;;;;;;2.83;0.57;;;9.60;99.90;;;;;;5068213;28;20024;-66
2023/03/14 07:24:03;;;;;;;1.20;0.70;;;9.60;99.90;;;;;;5060923;28;20461;-67
2023/03/14 07:26:29;;;;;;;4.40;0.30;;;9.70;99.90;;;;;;5063243;28;20514;-67
2023/03/14 07:28:54;;;;;;;0.10;0.10;;;9.70;99.90;;;;;;5059165;28;20073;-67
2023/03/14 07:31:20;;;;;;;0.93;0.60;;;9.80;99.90;;;;;;5059042;28;20037;-67
2023/03/14 07:33:46;;;;;;;0.43;0.40;;;10.00;99.90;;;;;;5059124;28;20026;-66
2023/03/14 07:36:11;;;;;;;0.25;0.25;;;10.00;99.90;;;;;;5060241;28;20028;-66
2023/03/14 07:38:37;;;;;;;0.52;0.30;;;10.20;99.90;;;;;;5038530;28;20402;-67
2023/03/14 07:41:05;;;;;;;0.38;0.35;;;10.30;99.90;;;;;;5060257;28;20031;-67
2023/03/14 07:43:30;;;;;;;0.50;0.30;;;10.30;99.90;;;;;;5059781;28;20029;-67
2023/03/14 07:45:56;;;;;;;0.25;0.25;;;10.40;99.90;;;;;;5061226;28;20440;-65
2023/03/14 07:48:24;;;;;;;0.20;0.20;;;10.40;99.90;;;;;;5059349;28;20024;-66
2023/03/14 07:50:51;;;;;;;0.52;0.40;;;10.40;99.90;;;;;;5059377;28;20032;-67
2023/03/14 07:53:17;;;;;;;0.70;0.47;;;10.40;99.90;;;;;;5060630;28;21677;-67
2023/03/14 07:55:44;;;;;;;0.40;0.25;;;10.50;99.90;;;;;;5065027;28;20402;-67
2023/03/14 07:58:09;;;;;;;1.10;0.40;;;10.50;99.90;;;;;;5067702;28;20032;-66
2023/03/14 08:00:35;;;;;;;0.50;0.50;;;10.50;99.90;;;;;;5069568;28;20029;-67
2023/03/14 08:03:00;;;;;;;0.30;0.30;;;10.50;99.90;;;;;;5059778;28;20565;-66
2023/03/14 08:05:26;;;;;;;0.40;0.40;;;10.50;99.90;;;;;;5067490;28;20101;-66
2023/03/14 08:07:52;;;;;;;0.40;0.40;;;10.60;99.90;;;;;;5071171;28;20028;-66
2023/03/14 08:10:23;;;;;;;0.60;0.40;;;10.80;99.90;;;;;;5068380;28;20029;-66
2023/03/14 08:12:57;;;;;;;1.45;0.50;;;10.90;99.90;;;;;;5068038;28;20032;-67
2023/03/14 08:15:23;;;;;;;1.05;0.55;;;11.00;99.90;;;;;;5069073;28;20165;-67
2023/03/14 08:17:50;;;;;;;0.85;0.60;;;11.20;99.90;;;;;;5069650;28;20036;-67
2023/03/14 08:20:21;;;;;;;1.23;0.50;;;11.40;99.90;;;;;;5069647;28;20350;-66
2023/03/14 08:22:47;;;;;;;0.30;0.30;;;11.50;99.90;;;;;;5066276;28;20111;-67
2023/03/14 08:25:13;;;;;;;1.10;0.70;;;11.60;99.90;;;;;;5067211;28;20107;-67
2023/03/14 08:27:40;;;;;;;3.60;0.60;;;11.50;99.90;;;;;;5060326;28;20472;-66
2023/03/14 08:30:09;;;;;;;0.50;0.50;;;11.60;99.90;;;;;;5056523;28;20041;-67
2023/03/14 08:32:34;;;;;;;0.40;0.40;;;11.60;99.90;;;;;;5059733;28;20047;-67
2023/03/14 08:35:00;;;;;;;0.40;0.40;;;11.60;99.90;;;;;;5058758;28;20591;-66
2023/03/14 08:37:26;;;;;;;0.40;0.40;;;11.60;99.90;;;;;;5062058;28;20192;-66
2023/03/14 08:39:53;;;;;;;0.50;0.47;;;11.60;99.90;;;;;;5034730;28;20070;-67
2023/03/14 08:42:18;;;;;;;0.50;0.50;;;11.60;99.90;;;;;;5061837;28;20020;-66
2023/03/14 08:44:44;;;;;;;0.20;0.20;;;11.50;99.90;;;;;;5059439;28;20023;-66
2023/03/14 08:47:10;;;;;;;0.40;0.40;;;11.50;99.90;;;;;;5064618;28;20032;-67
2023/03/14 08:49:36;;;;;;;0.40;0.40;;;11.60;99.90;;;;;;5060039;28;20501;-66
2023/03/14 08:52:03;;;;;;;0.50;0.50;;;11.60;99.90;;;;;;5060393;28;20032;-67
2023/03/14 08:54:29;;;;;;;0.30;0.30;;;11.70;99.90;;;;;;5058872;28;20033;-67
2023/03/14 08:56:55;;;;;;;0.35;0.35;;;11.80;99.90;;;;;;5060000;28;20035;-67
2023/03/14 08:59:20;;;;;;;0.32;0.32;;;12.00;99.90;;;;;;5058659;28;20749;-66
2023/03/14 09:01:46;;;;;;;0.30;0.30;;;11.80;99.90;;;;;;5059678;28;20386;-66
2023/03/14 09:04:11;;;;;;;0.38;0.38;;;11.70;99.90;;;;;;5056312;28;20113;-66
2023/03/14 09:06:37;;;;;;;0.47;0.43;;;11.70;99.90;;;;;;5059217;28;20025;-66
2023/03/14 09:09:03;;;;;;;0.75;0.43;;;11.60;99.90;;;;;;5060111;28;20434;-66
2023/03/14 09:11:28;;;;;;;1.05;0.40;;;11.50;99.90;;;;;;5059773;28;20032;-67
2023/03/14 09:13:54;;;;;;;1.20;0.40;;;11.60;99.90;;;;;;5072002;28;20033;-65
2023/03/14 09:16:19;;;;;;;1.08;0.80;;;11.60;99.90;;;;;;5069252;28;20045;-66
2023/03/14 09:18:45;;;;;;;1.83;1.23;;;11.50;99.90;;;;;;5070066;28;20055;-66
2023/03/14 09:21:11;;;;;;;8.77;4.70;;;11.40;99.90;;;;;;5065647;28;20013;-67
2023/03/14 09:23:36;;;;;;;3.63;1.30;;;11.30;99.90;;;;;;5072620;28;20420;-66
2023/03/14 09:26:02;;;;;;;1.00;0.50;;;11.10;99.90;;;;;;5066688;28;20024;-65
2023/03/14 09:28:28;;;;;;;0.30;0.30;;;11.10;99.90;;;;;;5065853;28;20029;-66
2023/03/14 09:30:54;;;;;;;0.30;0.30;;;11.00;99.90;;;;;;5058597;28;20115;-67
2023/03/14 09:33:20;;;;;;;1.88;0.50;;;10.90;99.90;;;;;;5070000;28;20047;-67
2023/03/14 09:35:46;;;;;;;1.58;1.30;;;10.90;99.90;;;;;;5063613;28;20154;-67
2023/03/14 09:38:11;;;;;;;0.40;0.40;;;10.90;99.90;;;;;;5061866;28;20031;-66
2023/03/14 09:40:38;;;;;;;0.50;0.50;;;11.00;99.90;;;;;;5043488;28;20118;-67
2023/03/14 09:43:04;;;;;;;2.72;0.52;;;10.90;99.90;;;;;;5063544;28;20033;-67
2023/03/14 09:45:36;;;;;;;1.67;0.77;;;10.70;99.90;;;;;;5063431;28;20078;-68
2023/03/14 09:48:03;;;;;;;1.05;0.50;;;10.70;99.90;;;;;;5075134;28;20035;-67
2023/03/14 09:50:50;;;;;;;0.82;0.40;;;10.50;99.90;;;;;;5063166;28;20051;-66
2023/03/14 09:53:24;;;;;;;0.38;0.30;;;10.40;99.90;;;;;;5064031;28;20109;-68
2023/03/14 09:55:51;;;;;;;;;;;10.50;99.90;;;;;;5069502;28;20035;-66
2023/03/14 09:58:20;;;;;;;6.97;0.50;;;10.40;99.90;;;;;;5072340;28;19919;-67
2023/03/14 10:00:46;;;;;;;1.10;0.43;;;10.30;99.90;;;;;;5065701;28;20031;-66
2023/03/14 10:03:11;;;;;;;1.60;0.40;;;10.30;99.90;;;;;;5067986;28;20032;-67
2023/03/14 10:05:38;;;;;;;0.50;0.50;;;10.00;99.90;;;;;;5071427;28;20031;-66
2023/03/14 10:08:04;;;;;;;0.77;0.40;;;9.80;99.90;;;;;;5065686;28;20062;-65
2023/03/14 10:10:30;;;;;;;0.70;0.60;;;9.40;99.90;;;;;;5072530;28;20481;-65
2023/03/14 10:13:01;;;;;;;1.45;0.50;;;9.10;99.90;;;;;;5070398;28;20032;-65
2023/03/14 10:15:32;;;;;;;0.70;0.60;;;9.10;99.90;;;;;;5066672;28;20543;-65
2023/03/14 10:18:00;;;;;;;0.63;0.50;;;8.90;99.90;;;;;;5070104;28;20039;-66
2023/03/14 10:20:36;;;;;;;0.60;0.50;;;8.80;99.90;;;;;;5064302;28;20043;-68
2023/03/14 10:23:14;;;;;;;0.60;0.47;;;8.60;99.90;;;;;;5063811;28;20517;-66
2023/03/14 10:25:45;;;;;;;2.75;0.85;;;8.50;99.90;;;;;;5068092;28;20021;-66
2023/03/14 10:28:37;;;;;;;0.50;0.50;;;8.50;99.90;;;;;;5062428;28;20528;-65
2023/03/14 10:31:04;;;;;;;0.50;0.50;;;8.40;99.90;;;;;;5026540;28;20452;-65
2023/03/14 10:33:35;;;;;;;0.85;0.65;;;8.50;99.90;;;;;;5060582;28;20094;-65
2023/03/14 10:36:21;;;;;;;1.10;0.88;;;8.60;99.90;;;;;;5065168;28;20056;-65
2023/03/14 10:38:47;;;;;;;1.42;0.85;;;8.70;99.90;;;;;;5061455;28;20103;-66
2023/03/14 10:41:25;;;;;;;1.15;0.88;;;8.70;99.90;;;;;;5033465;28;20501;-66
2023/03/14 10:43:54;;;;;;;1.30;1.10;;;8.60;99.90;;;;;;5060236;28;20044;-66
2023/03/14 10:46:20;;;;;;;1.10;1.00;;;8.60;99.90;;;;;;5061214;28;20495;-67
2023/03/14 10:48:46;;;;;;;3.53;1.40;;;8.50;99.90;;;;;;5061818;28;20137;-66
2023/03/14 10:51:28;;;;;;;2.45;1.55;;;8.40;99.90;;;;;;5054199;28;20174;-66
2023/03/14 10:54:13;;;;;;;3.50;0.98;;;8.40;99.90;;;;;;5058901;28;20029;-68
2023/03/14 10:56:39;;;;;;;1.90;1.58;;;8.30;99.90;;;;;;5062068;28;20059;-66
2023/03/14 10:59:14;;;;;;;3.72;1.48;;;8.10;99.90;;;;;;5061314;28;20021;-66
2023/03/14 11:01:52;;;;;;;3.60;1.95;;;8.00;99.90;;;;;;5062087;28;20513;-65
2023/03/14 11:04:42;;;;;;;1.90;1.38;;;8.00;99.90;;;;;;5056963;28;20095;-65
2023/03/14 11:07:14;;;;;;;2.40;1.63;;;8.00;99.90;;;;;;5062213;28;20112;-66
2023/03/14 11:09:51;;;;;;;1.67;1.52;;;7.90;99.90;;;;;;5056894;28;20041;-66
2023/03/14 11:12:38;;;;;;;2.92;1.90;;;7.90;99.90;;;;;;5062265;28;20043;-66
2023/03/14 11:15:27;;;;;;;4.43;1.98;;;8.00;99.90;;;;;;5059442;28;20036;-66
2023/03/14 11:18:31;;;;;;;5.63;2.40;;;8.00;99.90;;;;;;5055032;28;20041;-65
2023/03/14 11:21:11;;;;;;;5.03;2.35;;;8.00;99.90;;;;;;5057468;28;20104;-66
2023/03/14 11:24:03;;;;;;;7.72;2.88;;;8.10;99.90;;;;;;5059311;28;20082;-66
2023/03/14 11:27:05;;;;;;;3.40;2.00;;;8.10;99.90;;;;;;5051171;28;20593;-66
2023/03/14 11:29:39;;;;;;;4.65;2.33;;;8.20;99.90;;;;;;5035846;28;20097;-66
2023/03/14 11:32:17;;;;;;;3.85;1.48;;;8.20;99.90;;;;;;5067335;28;20035;-66
2023/03/14 11:34:53;;;;;;;3.90;2.00;;;8.30;99.90;;;;;;5068393;28;20039;-65
2023/03/14 11:37:36;;;;;;;5.43;1.48;;;8.40;99.90;;;;;;5061306;28;20578;-66
2023/03/14 11:40:18;;;;;;;2.20;1.45;;;8.60;99.90;;;;;;5042610;28;20080;-66
2023/03/14 11:42:49;;;;;;;2.50;1.75;;;8.70;99.90;;;;;;5058888;28;20046;-67
2023/03/14 11:45:19;;;;;;;6.55;2.88;;;8.70;99.90;;;;;;5057961;28;20027;-67
2023/03/14 11:47:51;;;;;;;4.85;2.35;;;8.80;99.90;;;;;;5060427;28;20033;-65
2023/03/14 11:50:22;;;;;;;2.30;1.88;;;8.80;99.90;;;;;;5056754;28;20032;-66
2023/03/14 11:52:58;;;;;;;2.22;1.80;;;8.70;99.90;;;;;;5058998;28;20111;-65
2023/03/14 11:55:35;;;;;;;2.67;1.92;;;8.70;99.90;;;;;;5066825;28;20058;-66
2023/03/14 11:58:19;;;;;;;4.10;1.95;;;8.90;99.90;;;;;;5065673;28;20210;-67
2023/03/14 12:00:48;;;;;;;1.85;1.45;;;8.90;99.90;;;;;;5065163;28;20028;-66
2023/03/14 12:03:52;;;;;;;1.90;1.33;;;8.80;99.90;;;;;;5064872;28;20402;-65
2023/03/14 12:06:45;;;;;;;1.53;0.63;;;8.40;99.90;;;;;;5036851;28;20488;-66
2023/03/14 12:09:13;;;;;;;1.02;0.60;;;8.00;99.90;;;;;;5066768;28;20033;-67
2023/03/14 12:11:59;;;;;;;0.52;0.50;;;7.80;99.90;;;;;;5065992;28;20501;-66
2023/03/14 12:14:31;;;;;;;0.90;0.50;;;7.80;99.90;;;;;;5040329;28;20176;-65
2023/03/14 12:17:52;;;;;;;2.90;0.43;;;7.80;99.90;;;;;;5066306;28;20054;-67
2023/03/14 12:20:21;;;;;;;1.85;0.80;;;7.90;99.90;;;;;;5060820;28;20029;-65
2023/03/14 12:22:48;;;;;;;0.77;0.73;;;7.90;99.90;;;;;;5064067;28;20021;-67
2023/03/14 12:25:20;;;;;;;5.10;0.95;;;7.80;99.90;;;;;;5069904;28;20032;-66
2023/03/14 12:28:04;;;;;;;3.55;1.52;;;7.60;99.90;;;;;;5061135;28;20035;-65
2023/03/14 12:30:34;;;;;;;2.17;1.10;;;7.50;99.90;;;;;;5054726;28;20033;-66
2023/03/14 12:33:09;;;;;;;2.22;1.23;;;7.40;99.90;;;;;;5059124;28;20753;-66
2023/03/14 12:35:39;;;;;;;3.90;1.50;;;7.40;99.90;;;;;;5072065;28;20111;-67
2023/03/14 12:38:14;;;;;;;3.63;1.98;;;7.40;99.90;;;;;;5059108;28;20028;-66
2023/03/14 12:40:54;;;;;;;5.82;2.40;;;7.40;99.90;;;;;;5034767;28;22118;-66
2023/03/14 12:43:32;;;;;;;9.48;2.80;;;7.40;99.90;;;;;;5069928;28;20036;-66
2023/03/14 12:46:09;;;;;;;3.78;2.35;;;7.40;99.90;;;;;;5064585;28;20090;-66
2023/03/14 12:48:37;;;;;;;6.22;2.92;;;7.60;99.90;;;;;;5059205;28;20082;-66
2023/03/14 12:51:12;;;;;;;4.90;2.80;;;7.70;99.90;;;;;;5055426;28;20036;-66
2023/03/14 12:53:55;;;;;;;8.05;3.90;;;7.90;99.90;;;;;;5063415;28;20189;-67
2023/03/14 12:56:35;;;;;;;6.43;3.05;;;7.80;99.90;;;;;;5059291;28;20536;-66
2023/03/14 12:59:19;;;;;;;6.40;3.50;;;7.60;99.90;;;;;;5061246;28;20036;-66
2023/03/14 13:01:55;;;;;;;9.52;3.75;;;7.60;99.90;;;;;;5065416;28;20036;-66